createdAt,value
2023-10-30T00:00:43.819Z,13.60
2023-10-30T00:03:13.078Z,13.60
2023-10-30T00:05:40.885Z,13.23
2023-10-30T00:08:08.565Z,12.50
2023-10-30T00:10:36.272Z,12.57
2023-10-30T00:13:03.941Z,13.27
2023-10-30T00:15:31.725Z,13.07
2023-10-30T00:17:59.411Z,13.10
2023-10-30T00:20:28.439Z,12.37
2023-10-30T00:22:56.383Z,12.10
2023-10-30T00:25:24.469Z,12.50
2023-10-30T00:27:52.103Z,13.50
2023-10-30T00:30:20.758Z,12.80
2023-10-30T00:32:48.539Z,13.40
2023-10-30T00:35:16.420Z,12.70
2023-10-30T00:37:45.479Z,13.50
2023-10-30T00:40:14.395Z,13.40
2023-10-30T00:42:42.718Z,13.20
2023-10-30T00:45:11.571Z,12.37
2023-10-30T00:47:41.043Z,12.20
2023-10-30T00:50:09.822Z,12.90
2023-10-30T00:52:37.651Z,12.73
2023-10-30T00:55:07.120Z,12.80
2023-10-30T00:57:35.004Z,13.50
2023-10-30T01:00:02.917Z,12.60
2023-10-30T01:02:30.692Z,13.40
2023-10-30T01:04:58.632Z,12.50
2023-10-30T01:07:26.712Z,12.70
2023-10-30T01:09:54.386Z,13.50
2023-10-30T01:12:23.409Z,13.40
2023-10-30T01:14:51.156Z,14.00
2023-10-30T01:17:18.738Z,13.50
2023-10-30T01:19:46.722Z,12.90
2023-10-30T01:22:14.472Z,12.77
2023-10-30T01:24:42.390Z,12.70
2023-10-30T01:27:10.546Z,13.53
2023-10-30T01:29:39.641Z,12.77
2023-10-30T01:32:07.722Z,13.60
2023-10-30T01:34:35.451Z,13.43
2023-10-30T01:37:03.708Z,13.73
2023-10-30T01:39:31.362Z,14.00
2023-10-30T01:41:59.101Z,14.30
2023-10-30T01:44:26.765Z,14.00
2023-10-30T01:46:56.393Z,12.80
2023-10-30T01:49:24.343Z,14.00
2023-10-30T01:51:52.086Z,13.93
2023-10-30T01:54:19.701Z,13.73
2023-10-30T01:56:47.529Z,13.53
2023-10-30T01:59:15.597Z,13.70
2023-10-30T02:01:43.344Z,13.20
2023-10-30T02:04:13.568Z,13.43
2023-10-30T02:06:41.463Z,13.70
2023-10-30T02:09:09.200Z,14.20
2023-10-30T02:11:36.886Z,14.63
2023-10-30T02:14:04.588Z,14.57
2023-10-30T02:16:32.228Z,13.90
2023-10-30T02:19:00.234Z,14.70
2023-10-30T02:21:29.406Z,14.97
2023-10-30T02:24:07.023Z,14.77
2023-10-30T02:26:36.144Z,14.00
2023-10-30T02:29:06.879Z,13.60
2023-10-30T02:31:34.977Z,14.50
2023-10-30T02:34:02.821Z,14.30
2023-10-30T02:36:30.610Z,13.77
2023-10-30T02:38:58.375Z,12.60
2023-10-30T02:41:30.271Z,12.73
2023-10-30T02:43:59.694Z,14.30
2023-10-30T02:46:27.676Z,13.50
2023-10-30T02:48:55.951Z,13.80
2023-10-30T02:51:23.860Z,13.90
2023-10-30T02:53:51.657Z,13.10
2023-10-30T02:56:19.290Z,13.47
2023-10-30T02:58:46.886Z,15.40
2023-10-30T03:01:15.888Z,13.73
2023-10-30T03:03:43.643Z,14.00
2023-10-30T03:06:11.541Z,14.07
2023-10-30T03:08:39.142Z,14.30
2023-10-30T03:11:06.767Z,13.73
2023-10-30T03:13:34.429Z,13.93
2023-10-30T03:16:02.185Z,14.30
2023-10-30T03:18:31.657Z,15.30
2023-10-30T03:20:59.421Z,15.87
2023-10-30T03:23:27.037Z,14.10
2023-10-30T03:25:55.713Z,15.00
2023-10-30T03:28:23.306Z,14.30
2023-10-30T03:30:50.955Z,14.83
2023-10-30T03:33:21.695Z,14.87
2023-10-30T03:35:50.765Z,13.20
2023-10-30T03:38:18.446Z,14.13
2023-10-30T03:40:46.085Z,13.70
2023-10-30T03:43:15.293Z,14.33
2023-10-30T03:45:44.990Z,13.60
2023-10-30T03:48:12.888Z,13.13
2023-10-30T03:50:39.789Z,13.70
2023-10-30T03:53:08.713Z,13.47
2023-10-30T03:55:36.710Z,13.40
2023-10-30T03:58:05.810Z,13.80
2023-10-30T04:00:33.527Z,13.60
2023-10-30T04:03:01.239Z,13.70
2023-10-30T04:05:29.080Z,14.40
2023-10-30T04:07:56.989Z,14.63
2023-10-30T04:10:25.942Z,14.33
2023-10-30T04:12:53.589Z,14.40
2023-10-30T04:15:21.363Z,13.80
2023-10-30T04:17:49.086Z,14.37
2023-10-30T04:20:16.931Z,14.67
2023-10-30T04:22:44.593Z,13.87
2023-10-30T04:25:12.640Z,14.80
2023-10-30T04:27:41.745Z,12.47
2023-10-30T04:30:11.233Z,13.07
2023-10-30T04:32:39.034Z,14.00
2023-10-30T04:35:07.067Z,13.30
2023-10-30T04:37:35.611Z,13.17
2023-10-30T04:40:03.663Z,13.33
2023-10-30T04:42:31.986Z,14.43
2023-10-30T04:45:01.857Z,13.03
2023-10-30T04:47:29.545Z,12.40
2023-10-30T04:49:57.204Z,12.47
2023-10-30T04:52:26.644Z,11.57
2023-10-30T04:54:54.698Z,12.30
2023-10-30T04:57:22.475Z,13.20
2023-10-30T04:59:50.216Z,13.50
2023-10-30T05:02:19.422Z,13.43
2023-10-30T05:04:47.819Z,12.90
2023-10-30T05:07:15.451Z,12.80
2023-10-30T05:09:43.303Z,12.57
2023-10-30T05:12:11.010Z,13.50
2023-10-30T05:14:38.654Z,12.70
2023-10-30T05:17:06.285Z,13.33
2023-10-30T05:19:35.670Z,13.60
2023-10-30T05:22:03.326Z,12.80
2023-10-30T05:24:31.065Z,13.27
2023-10-30T05:26:58.685Z,13.37
2023-10-30T05:29:26.324Z,13.20
2023-10-30T05:31:54.063Z,13.40
2023-10-30T05:34:21.675Z,14.53
2023-10-30T05:36:50.698Z,13.70
2023-10-30T05:39:18.386Z,13.40
2023-10-30T05:41:46.090Z,13.23
2023-10-30T05:44:13.654Z,13.43
2023-10-30T05:46:41.809Z,13.20
2023-10-30T05:49:09.663Z,12.40
2023-10-30T05:51:37.347Z,11.60
2023-10-30T05:54:07.273Z,11.77
2023-10-30T05:56:34.940Z,12.03
2023-10-30T05:59:02.830Z,11.77
2023-10-30T06:01:30.675Z,11.67
2023-10-30T06:03:58.458Z,11.90
2023-10-30T06:06:26.562Z,12.17
2023-10-30T06:08:54.331Z,13.13
2023-10-30T06:11:23.370Z,12.50
2023-10-30T06:13:51.245Z,13.50
2023-10-30T06:16:20.584Z,14.20
2023-10-30T06:18:48.626Z,13.70
2023-10-30T06:21:17.137Z,14.20
2023-10-30T06:23:45.022Z,14.50
2023-10-30T06:26:13.210Z,14.60
2023-10-30T06:28:43.011Z,14.10
2023-10-30T06:31:15.646Z,14.30
2023-10-30T06:33:44.309Z,13.70
2023-10-30T06:36:12.062Z,14.90
2023-10-30T06:38:40.296Z,14.13
2023-10-30T06:41:08.586Z,13.90
2023-10-30T06:43:37.106Z,13.93
2023-10-30T06:46:07.004Z,13.60
2023-10-30T06:48:35.193Z,13.80
2023-10-30T06:51:02.938Z,14.37
2023-10-30T06:53:30.560Z,14.30
2023-10-30T06:55:59.144Z,13.70
2023-10-30T06:58:26.890Z,14.87
2023-10-30T07:01:02.743Z,13.90
2023-10-30T07:03:33.755Z,13.37
2023-10-30T07:06:01.952Z,13.87
2023-10-30T07:08:29.747Z,14.10
2023-10-30T07:10:57.586Z,13.70
2023-10-30T07:13:25.538Z,13.77
2023-10-30T07:15:53.233Z,12.90
2023-10-30T07:18:20.939Z,12.90
2023-10-30T07:20:50.994Z,12.80
2023-10-30T07:23:19.036Z,13.10
2023-10-30T07:25:46.805Z,12.60
2023-10-30T07:28:17.460Z,13.00
2023-10-30T07:30:45.232Z,12.93
2023-10-30T07:33:13.396Z,13.70
2023-10-30T07:35:41.987Z,13.07
2023-10-30T07:38:11.050Z,13.80
2023-10-30T07:40:38.819Z,12.60
2023-10-30T07:43:06.552Z,13.30
2023-10-30T07:45:34.347Z,11.97
2023-10-30T07:48:01.980Z,11.50
2023-10-30T07:50:29.708Z,12.77
2023-10-30T07:52:57.418Z,12.80
2023-10-30T07:55:26.528Z,12.10
2023-10-30T07:57:54.233Z,11.67
2023-10-30T08:00:22.280Z,13.23
2023-10-30T08:02:50.828Z,13.13
2023-10-30T08:05:18.735Z,13.67
2023-10-30T08:07:46.533Z,12.10
2023-10-30T08:10:14.798Z,12.60
2023-10-30T08:12:43.869Z,13.40
2023-10-30T08:15:12.010Z,12.93
2023-10-30T08:17:40.251Z,13.20
2023-10-30T08:20:11.029Z,15.03
2023-10-30T08:22:39.894Z,12.97
2023-10-30T08:25:08.132Z,13.93
2023-10-30T08:27:36.071Z,14.20
2023-10-30T08:30:07.062Z,13.00
2023-10-30T08:32:34.764Z,12.90
2023-10-30T08:35:03.947Z,15.33
2023-10-30T08:37:31.611Z,13.40
2023-10-30T08:39:59.230Z,13.17
2023-10-30T08:42:26.997Z,13.10
2023-10-30T08:44:54.839Z,13.60
2023-10-30T08:47:25.121Z,13.60
2023-10-30T08:49:52.826Z,13.07
2023-10-30T08:52:20.649Z,13.10
2023-10-30T08:54:48.354Z,13.67
2023-10-30T08:57:20.378Z,14.03
2023-10-30T08:59:48.614Z,13.63
2023-10-30T09:02:16.422Z,13.30
2023-10-30T09:04:45.685Z,13.50
2023-10-30T09:07:13.723Z,13.20
2023-10-30T09:09:41.485Z,12.30
2023-10-30T09:12:10.178Z,13.63
2023-10-30T09:14:37.957Z,14.47
2023-10-30T09:17:09.531Z,13.43
2023-10-30T09:19:37.376Z,14.30
2023-10-30T09:22:06.926Z,13.30
2023-10-30T09:24:34.809Z,13.43
2023-10-30T09:27:02.496Z,12.70
2023-10-30T09:29:30.151Z,14.40
2023-10-30T09:32:00.558Z,13.77
2023-10-30T09:34:28.316Z,13.10
2023-10-30T09:36:56.016Z,13.23
2023-10-30T09:39:25.103Z,13.27
2023-10-30T09:41:55.955Z,12.73
2023-10-30T09:44:24.055Z,13.10
2023-10-30T09:46:52.366Z,13.50
2023-10-30T09:49:21.375Z,13.37
2023-10-30T09:51:52.077Z,13.53
2023-10-30T09:54:20.674Z,12.90
2023-10-30T09:56:51.124Z,12.57
2023-10-30T09:59:18.829Z,14.50
2023-10-30T10:01:46.689Z,12.00
2023-10-30T10:04:14.815Z,11.83
2023-10-30T10:06:43.565Z,12.93
2023-10-30T10:09:11.309Z,13.97
2023-10-30T10:11:39.009Z,14.00
2023-10-30T10:14:08.308Z,14.80
2023-10-30T10:16:37.769Z,14.70
2023-10-30T10:19:21.015Z,13.50
2023-10-30T10:21:51.356Z,11.77
2023-10-30T10:24:29.454Z,13.33
2023-10-30T10:27:03.467Z,12.90
2023-10-30T10:29:32.664Z,13.00
2023-10-30T10:32:00.308Z,13.00
2023-10-30T10:34:32.015Z,11.70
2023-10-30T10:37:00.941Z,12.30
2023-10-30T10:39:29.014Z,12.97
2023-10-30T10:41:58.215Z,13.20
2023-10-30T10:44:26.715Z,14.13
2023-10-30T10:47:00.321Z,13.47
2023-10-30T10:49:28.108Z,13.73
2023-10-30T10:51:57.276Z,13.60
2023-10-30T10:54:28.545Z,13.20
2023-10-30T10:56:58.523Z,13.60
2023-10-30T10:59:29.371Z,13.43
2023-10-30T11:02:01.177Z,12.40
2023-10-30T11:04:30.901Z,13.10
2023-10-30T11:07:03.906Z,12.50
2023-10-30T11:09:42.704Z,11.93
2023-10-30T11:12:21.940Z,12.30
2023-10-30T11:14:58.054Z,11.77
2023-10-30T11:17:28.240Z,14.13
2023-10-30T11:20:04.793Z,12.80
2023-10-30T11:22:40.767Z,12.93
2023-10-30T11:25:29.333Z,12.43
2023-10-30T11:27:59.241Z,12.90
2023-10-30T11:30:28.003Z,13.07
2023-10-30T11:32:59.329Z,12.10
2023-10-30T11:35:31.304Z,12.20
2023-10-30T11:38:00.889Z,12.80
2023-10-30T11:40:28.686Z,13.13
2023-10-30T11:42:58.772Z,12.57
2023-10-30T11:45:29.512Z,10.80
2023-10-30T11:48:02.532Z,11.57
2023-10-30T11:50:33.706Z,11.53
2023-10-30T11:53:02.297Z,13.27
2023-10-30T11:55:31.581Z,12.10
2023-10-30T11:58:00.738Z,11.77
2023-10-30T12:00:28.600Z,12.23
2023-10-30T12:02:56.841Z,12.83
2023-10-30T12:05:27.033Z,12.50
2023-10-30T12:07:54.990Z,11.93
2023-10-30T12:10:23.753Z,12.10
2023-10-30T12:12:51.455Z,11.43
2023-10-30T12:15:19.148Z,12.43
2023-10-30T12:17:46.897Z,12.30
2023-10-30T12:20:14.547Z,12.20
2023-10-30T12:22:45.638Z,12.33
2023-10-30T12:25:17.209Z,11.23
2023-10-30T12:27:45.312Z,11.60
2023-10-30T12:30:14.643Z,11.63
2023-10-30T12:32:43.334Z,12.50
2023-10-30T12:35:16.129Z,12.20
2023-10-30T12:37:45.089Z,11.40
2023-10-30T12:40:14.440Z,12.30
2023-10-30T12:42:44.415Z,11.70
2023-10-30T12:45:13.484Z,12.87
2023-10-30T12:47:42.338Z,12.60
2023-10-30T12:50:11.543Z,12.00
2023-10-30T12:52:39.442Z,12.83
2023-10-30T12:55:09.277Z,12.23
2023-10-30T12:57:38.273Z,12.47
2023-10-30T13:00:08.062Z,12.10
2023-10-30T13:02:36.160Z,12.03
2023-10-30T13:05:04.477Z,12.00
2023-10-30T13:07:32.544Z,11.80
2023-10-30T13:10:00.364Z,11.83
2023-10-30T13:12:29.999Z,11.40
2023-10-30T13:14:57.660Z,10.63
2023-10-30T13:17:25.479Z,12.40
2023-10-30T13:19:53.969Z,11.33
2023-10-30T13:22:21.589Z,11.53
2023-10-30T13:24:50.602Z,12.70
2023-10-30T13:27:18.582Z,12.97
2023-10-30T13:29:47.658Z,12.50
2023-10-30T13:32:15.394Z,12.77
2023-10-30T13:34:43.222Z,13.53
2023-10-30T13:37:10.834Z,12.40
2023-10-30T13:39:39.662Z,12.80
2023-10-30T13:42:07.810Z,13.50
2023-10-30T13:44:35.516Z,13.50
2023-10-30T13:47:04.602Z,13.20
2023-10-30T13:49:32.522Z,13.73
2023-10-30T13:52:00.277Z,14.00
2023-10-30T13:54:28.007Z,15.37
2023-10-30T13:56:55.753Z,13.70
2023-10-30T13:59:23.458Z,14.67
2023-10-30T14:01:52.481Z,13.90
2023-10-30T14:04:22.247Z,14.57
2023-10-30T14:06:49.966Z,13.97
2023-10-30T14:09:17.834Z,15.27
2023-10-30T14:11:46.054Z,14.20
2023-10-30T14:14:13.630Z,14.17
2023-10-30T14:16:41.742Z,14.57
2023-10-30T14:19:09.509Z,14.50
2023-10-30T14:21:39.257Z,15.07
2023-10-30T14:24:08.978Z,15.97
2023-10-30T14:26:38.324Z,15.30
2023-10-30T14:29:06.341Z,13.93
2023-10-30T14:31:33.982Z,14.87
2023-10-30T14:34:01.626Z,14.40
2023-10-30T14:36:29.922Z,14.23
2023-10-30T14:38:59.028Z,14.70
2023-10-30T14:41:27.759Z,14.77
2023-10-30T14:43:55.399Z,15.40
2023-10-30T14:46:23.341Z,14.67
2023-10-30T14:48:51.138Z,15.70
2023-10-30T14:51:19.989Z,16.00
2023-10-30T14:53:47.949Z,16.50
2023-10-30T14:56:17.374Z,17.13
2023-10-30T14:58:45.096Z,17.93
2023-10-30T15:01:13.020Z,17.10
2023-10-30T15:03:41.458Z,16.60
2023-10-30T15:06:09.137Z,16.80
2023-10-30T15:08:36.779Z,16.67
2023-10-30T15:11:04.706Z,16.10
2023-10-30T15:13:33.725Z,16.73
2023-10-30T15:16:01.901Z,16.83
2023-10-30T15:18:29.597Z,16.37
2023-10-30T15:20:57.354Z,17.90
2023-10-30T15:23:25.664Z,17.80
2023-10-30T15:25:53.311Z,16.73
2023-10-30T15:28:20.970Z,16.60
2023-10-30T15:30:53.101Z,15.97
2023-10-30T15:33:21.789Z,18.17
2023-10-30T15:35:49.477Z,17.97
2023-10-30T15:38:17.475Z,18.10
2023-10-30T15:40:45.106Z,16.97
2023-10-30T15:43:12.978Z,17.30
2023-10-30T15:45:40.764Z,17.50
2023-10-30T15:48:09.922Z,16.10
2023-10-30T15:50:38.306Z,16.10
2023-10-30T15:58:44.895Z,17.90
2023-10-30T16:01:00.837Z,17.77
2023-10-30T16:03:32.087Z,17.97
2023-10-30T16:16:04.399Z,18.50
2023-10-30T16:18:33.660Z,19.50
2023-10-30T16:23:32.292Z,19.83
2023-10-30T16:26:00.010Z,18.40
2023-10-30T16:28:27.770Z,18.40
2023-10-30T16:30:55.855Z,19.10
2023-10-30T16:33:23.481Z,19.40
2023-10-30T16:35:52.950Z,21.60
2023-10-30T16:38:20.664Z,19.40
2023-10-30T16:40:48.314Z,17.80
2023-10-30T16:43:16.060Z,17.57
2023-10-30T16:45:44.100Z,18.73
2023-10-30T16:48:12.401Z,18.20
2023-10-30T16:50:40.377Z,19.93
2023-10-30T16:53:09.354Z,18.47
2023-10-30T16:55:37.048Z,18.37
2023-10-30T16:58:04.810Z,18.27
2023-10-30T17:00:32.518Z,18.33
2023-10-30T17:03:01.095Z,18.67
2023-10-30T17:05:28.852Z,19.20
2023-10-30T17:07:56.579Z,19.43
2023-10-30T17:10:25.741Z,21.10
2023-10-30T17:12:53.463Z,21.53
2023-10-30T17:15:21.127Z,22.27
2023-10-30T17:17:48.782Z,26.20
2023-10-30T17:20:16.530Z,30.90
2023-10-30T17:22:44.673Z,26.67
2023-10-30T17:25:12.538Z,25.50
2023-10-30T17:27:42.392Z,29.10
2023-10-30T17:30:10.814Z,30.17
2023-10-30T17:32:38.659Z,23.97
2023-10-30T17:35:07.070Z,22.30
2023-10-30T17:37:34.753Z,20.10
2023-10-30T17:40:02.503Z,19.67
2023-10-30T17:42:30.161Z,17.50
2023-10-30T17:44:59.158Z,19.90
2023-10-30T17:47:26.928Z,18.40
2023-10-30T17:49:54.710Z,20.00
2023-10-30T17:52:22.448Z,18.80
2023-10-30T17:54:50.096Z,19.37
2023-10-30T17:57:17.727Z,19.30
2023-10-30T17:59:45.747Z,22.13
2023-10-30T18:02:14.802Z,22.10
2023-10-30T18:04:42.418Z,23.37
2023-10-30T18:07:10.114Z,24.93
2023-10-30T18:09:37.805Z,30.93
2023-10-30T18:12:06.355Z,32.67
2023-10-30T18:14:36.166Z,30.10
2023-10-30T18:17:05.730Z,31.07
2023-10-30T18:19:34.742Z,31.10
2023-10-30T18:22:02.534Z,29.83
2023-10-30T18:24:30.209Z,27.50
2023-10-30T18:26:58.681Z,26.00
2023-10-30T18:29:28.631Z,22.73
2023-10-30T18:31:57.287Z,21.17
2023-10-30T18:34:25.151Z,22.27
2023-10-30T18:36:54.597Z,20.80
2023-10-30T18:39:22.595Z,19.33
2023-10-30T18:41:50.323Z,18.83
2023-10-30T18:44:18.573Z,18.13
2023-10-30T18:46:46.435Z,18.37
2023-10-30T18:49:14.333Z,17.07
2023-10-30T18:51:43.926Z,15.77
2023-10-30T18:54:12.981Z,17.80
2023-10-30T18:56:40.913Z,17.70
2023-10-30T18:59:08.574Z,17.97
2023-10-30T19:01:36.274Z,17.20
2023-10-30T19:04:05.250Z,18.90
2023-10-30T19:06:32.919Z,17.13
2023-10-30T19:09:00.495Z,18.17
2023-10-30T19:11:31.730Z,18.63
2023-10-30T19:13:59.751Z,18.13
2023-10-30T19:16:27.434Z,17.40
2023-10-30T19:18:55.205Z,17.67
2023-10-30T19:21:22.858Z,17.60
2023-10-30T19:23:50.885Z,18.23
2023-10-30T19:26:18.601Z,16.90
2023-10-30T19:28:47.635Z,17.77
2023-10-30T19:31:15.497Z,17.17
2023-10-30T19:33:43.598Z,19.10
2023-10-30T19:36:11.930Z,17.80
2023-10-30T19:38:39.603Z,18.20
2023-10-30T19:41:07.370Z,18.53
2023-10-30T19:43:36.199Z,17.90
2023-10-30T19:46:05.362Z,17.10
2023-10-30T19:48:32.978Z,19.37
2023-10-30T19:51:01.618Z,19.40
2023-10-30T19:53:29.316Z,17.90
2023-10-30T19:55:57.142Z,18.30
2023-10-30T19:58:25.356Z,18.60
2023-10-30T20:00:53.024Z,16.20
2023-10-30T20:03:22.705Z,18.83
2023-10-30T20:05:50.502Z,17.73
2023-10-30T20:08:18.154Z,16.53
2023-10-30T20:10:46.897Z,17.70
2023-10-30T20:13:14.920Z,16.73
2023-10-30T20:15:42.524Z,16.60
2023-10-30T20:18:10.153Z,17.37
2023-10-30T20:20:39.177Z,15.83
2023-10-30T20:23:06.865Z,17.13
2023-10-30T20:25:35.206Z,17.30
2023-10-30T20:28:02.880Z,17.73
2023-10-30T20:30:30.516Z,17.20
2023-10-30T20:32:58.702Z,17.17
2023-10-30T20:35:26.437Z,17.33
2023-10-30T20:37:55.467Z,16.93
2023-10-30T20:40:23.102Z,18.60
2023-10-30T20:42:50.831Z,17.53
2023-10-30T20:45:18.440Z,17.33
2023-10-30T20:47:46.224Z,15.90
2023-10-30T20:50:14.113Z,16.07
2023-10-30T20:52:41.941Z,16.37
2023-10-30T20:55:11.280Z,15.70
2023-10-30T20:57:40.148Z,15.93
2023-10-30T21:00:09.417Z,16.97
2023-10-30T21:02:37.141Z,16.60
2023-10-30T21:05:05.548Z,16.80
2023-10-30T21:07:33.364Z,17.07
2023-10-30T21:10:03.508Z,16.90
2023-10-30T21:12:33.930Z,15.97
2023-10-30T21:15:02.361Z,16.93
2023-10-30T21:17:30.177Z,16.00
2023-10-30T21:19:58.190Z,17.37
2023-10-30T21:22:26.031Z,15.97
2023-10-30T21:24:53.742Z,15.80
2023-10-30T21:27:22.076Z,14.60
2023-10-30T21:29:51.190Z,15.87
2023-10-30T21:32:19.473Z,15.83
2023-10-30T21:34:47.204Z,16.57
2023-10-30T21:37:15.090Z,16.10
2023-10-30T21:39:42.773Z,15.20
2023-10-30T21:42:10.381Z,15.20
2023-10-30T21:44:38.074Z,15.10
2023-10-30T21:47:07.665Z,13.87
2023-10-30T21:49:35.752Z,15.40
2023-10-30T21:52:03.411Z,15.00
2023-10-30T21:54:31.078Z,15.67
2023-10-30T21:56:58.728Z,14.73
2023-10-30T21:59:26.589Z,16.63
2023-10-30T22:01:54.293Z,17.73
2023-10-30T22:04:23.350Z,16.67
2023-10-30T22:06:50.946Z,16.90
2023-10-30T22:09:19.626Z,18.17
2023-10-30T22:11:47.835Z,16.87
2023-10-30T22:14:15.400Z,16.83
2023-10-30T22:16:43.348Z,17.10
2023-10-30T22:19:11.143Z,17.53
2023-10-30T22:21:40.419Z,16.70
2023-10-30T22:24:08.989Z,17.83
2023-10-30T22:26:37.006Z,18.63
2023-10-30T22:29:05.067Z,17.63
2023-10-30T22:31:32.948Z,16.67
2023-10-30T22:34:00.606Z,16.67
2023-10-30T22:36:28.522Z,16.57
2023-10-30T22:38:57.647Z,16.70
2023-10-30T22:41:25.903Z,16.43
2023-10-30T22:43:54.503Z,17.03
2023-10-30T22:46:22.227Z,18.50
2023-10-30T22:48:49.849Z,18.30
2023-10-30T22:51:17.480Z,18.20
2023-10-30T22:53:45.180Z,17.57
2023-10-30T22:56:14.194Z,19.33
2023-10-30T22:58:42.944Z,24.40
2023-10-30T23:01:11.666Z,22.90
2023-10-30T23:03:39.545Z,21.40
2023-10-30T23:06:08.581Z,18.70
2023-10-30T23:08:36.382Z,21.43
2023-10-30T23:11:04.316Z,18.50
2023-10-30T23:13:33.279Z,20.80
2023-10-30T23:16:00.887Z,18.77
2023-10-30T23:18:28.726Z,20.67
2023-10-30T23:20:56.571Z,20.80
2023-10-30T23:23:24.207Z,21.83
2023-10-30T23:25:52.107Z,22.30
2023-10-30T23:28:19.890Z,25.87
2023-10-30T23:30:48.959Z,24.27
2023-10-30T23:33:16.776Z,26.90
2023-10-30T23:35:44.430Z,28.80
2023-10-30T23:38:15.465Z,28.53
2023-10-30T23:40:43.795Z,30.73
2023-10-30T23:43:11.619Z,34.33
2023-10-30T23:45:39.866Z,32.73
2023-10-30T23:48:09.106Z,27.30
2023-10-30T23:50:36.810Z,26.30
2023-10-30T23:53:04.680Z,31.97
2023-10-30T23:55:33.007Z,27.40
2023-10-30T23:58:00.763Z,21.37
